Time;durP1;ratioP1;P1;durP2;ratioP2;P2;SDS_P1;SDS_P2;PMS_P1;PMS_P2;Temp;Humidity;BMP_temperature;BMP_pressure;BME280_temperature;BME280_humidity;BME280_pressure;Samples;Min_cycle;Max_cycle;Signal;HPM_P1;HPM_P2
2022/07/16 00:02:03;;;;;;;3.20;1.40;;;;;;;;;;5050284;28;20049;-58
2022/07/16 00:04:29;;;;;;;3.50;1.50;;;;;;;;;;5050228;28;20090;-58
2022/07/16 00:06:55;;;;;;;5.57;1.73;;;;;;;;;;5049568;28;20091;-58
2022/07/16 00:09:21;;;;;;;2.77;1.30;;;;;;;;;;5050105;28;20419;-58
2022/07/16 00:11:47;;;;;;;3.03;1.50;;;;;;;;;;5049908;28;20207;-58
2022/07/16 00:14:13;;;;;;;5.40;1.30;;;;;;;;;;5049970;28;20096;-58
2022/07/16 00:16:39;;;;;;;6.13;1.60;;;;;;;;;;5048948;28;20040;-58
2022/07/16 00:19:20;;;;;;;3.87;1.43;;;;;;;;;;5048761;28;20041;-58
2022/07/16 00:21:48;;;;;;;2.80;1.33;;;;;;;;;;5050150;28;20045;-58
2022/07/16 00:24:14;;;;;;;2.47;1.27;;;;;;;;;;5049610;28;20495;-58
2022/07/16 00:26:40;;;;;;;5.00;1.60;;;;;;;;;;5049809;28;20107;-58
2022/07/16 00:29:06;;;;;;;5.63;1.70;;;;;;;;;;5049805;28;20045;-58
2022/07/16 00:31:32;;;;;;;6.50;1.83;;;;;;;;;;5049227;28;20053;-58
2022/07/16 00:33:58;;;;;;;4.83;1.70;;;;;;;;;;5049711;28;20051;-58
2022/07/16 00:36:24;;;;;;;4.77;1.67;;;;;;;;;;5049839;28;20056;-58
2022/07/16 00:38:50;;;;;;;6.40;1.50;;;;;;;;;;5049062;28;20049;-58
2022/07/16 00:41:16;;;;;;;4.23;1.93;;;;;;;;;;5049220;28;20088;-58
2022/07/16 00:43:47;;;;;;;4.20;1.50;;;;;;;;;;5049536;28;20102;-58
2022/07/16 00:46:14;;;;;;;5.27;3.37;;;;;;;;;;5049211;28;20044;-58
2022/07/16 00:48:40;;;;;;;5.10;1.60;;;;;;;;;;5049177;28;20048;-58
2022/07/16 00:51:07;;;;;;;6.23;1.87;;;;;;;;;;5049450;28;20084;-58
2022/07/16 00:53:34;;;;;;;4.93;1.73;;;;;;;;;;5049311;28;20128;-58
2022/07/16 00:56:00;;;;;;;4.07;1.70;;;;;;;;;;5049510;28;20071;-58
2022/07/16 00:58:27;;;;;;;3.70;1.80;;;;;;;;;;5049287;28;20414;-58
2022/07/16 01:00:53;;;;;;;7.43;2.00;;;;;;;;;;5049016;28;20056;-58
2022/07/16 01:03:19;;;;;;;2.93;2.00;;;;;;;;;;5049166;28;20513;-58
2022/07/16 01:05:46;;;;;;;3.27;1.87;;;;;;;;;;5048399;28;20434;-58
2022/07/16 01:08:12;;;;;;;3.30;2.17;;;;;;;;;;5048470;28;20114;-58
2022/07/16 01:10:40;;;;;;;3.73;2.00;;;;;;;;;;5049037;28;20045;-58
2022/07/16 01:13:08;;;;;;;4.10;2.23;;;;;;;;;;5048575;28;20044;-58
2022/07/16 01:15:34;;;;;;;3.83;2.03;;;;;;;;;;5048884;28;20044;-57
2022/07/16 01:18:00;;;;;;;5.40;2.50;;;;;;;;;;5048725;28;20527;-58
2022/07/16 01:20:26;;;;;;;3.20;1.57;;;;;;;;;;5048426;28;20041;-58
2022/07/16 01:22:56;;;;;;;6.03;2.53;;;;;;;;;;5048579;28;20836;-58
2022/07/16 01:25:22;;;;;;;4.70;2.07;;;;;;;;;;5048339;28;20044;-58
2022/07/16 01:27:48;;;;;;;4.50;2.10;;;;;;;;;;5048318;28;20055;-58
2022/07/16 01:30:14;;;;;;;3.53;2.10;;;;;;;;;;5048104;28;20049;-58
2022/07/16 01:32:40;;;;;;;11.37;3.07;;;;;;;;;;5048284;28;20295;-60
2022/07/16 01:35:06;;;;;;;5.23;3.20;;;;;;;;;;5048405;28;20040;-59
2022/07/16 01:37:33;;;;;;;7.03;3.63;;;;;;;;;;5048229;28;20045;-59
2022/07/16 01:39:59;;;;;;;9.93;4.50;;;;;;;;;;5048494;28;20045;-59
2022/07/16 01:42:25;;;;;;;8.10;4.80;;;;;;;;;;5048103;28;20150;-59
2022/07/16 01:44:51;;;;;;;6.40;3.90;;;;;;;;;;5048271;28;20060;-59
2022/07/16 01:47:18;;;;;;;10.40;4.80;;;;;;;;;;5048072;28;20057;-59
2022/07/16 01:49:45;;;;;;;9.80;5.30;;;;;;;;;;5048365;28;20044;-59
2022/07/16 01:52:13;;;;;;;7.27;4.17;;;;;;;;;;5048040;28;20471;-59
2022/07/16 01:54:43;;;;;;;9.97;4.80;;;;;;;;;;5047995;28;20037;-59
2022/07/16 01:57:09;;;;;;;8.93;5.50;;;;;;;;;;5047339;28;20048;-59
2022/07/16 01:59:36;;;;;;;6.63;4.50;;;;;;;;;;5048179;28;20148;-59
2022/07/16 02:02:02;;;;;;;7.97;4.83;;;;;;;;;;5047810;28;20049;-59
2022/07/16 02:04:28;;;;;;;7.37;5.03;;;;;;;;;;5047431;28;20530;-59
2022/07/16 02:06:54;;;;;;;8.97;5.13;;;;;;;;;;5047708;28;20041;-59
2022/07/16 02:09:20;;;;;;;8.43;6.43;;;;;;;;;;5047569;28;20053;-59
2022/07/16 02:11:46;;;;;;;8.27;6.33;;;;;;;;;;5048202;28;20045;-59
2022/07/16 02:14:12;;;;;;;10.27;6.00;;;;;;;;;;5046434;28;20045;-60
2022/07/16 02:16:38;;;;;;;11.33;6.67;;;;;;;;;;5047820;28;20384;-59
2022/07/16 02:19:04;;;;;;;11.80;7.60;;;;;;;;;;5047652;28;20067;-59
2022/07/16 02:21:31;;;;;;;13.60;7.67;;;;;;;;;;5047873;28;20037;-59
2022/07/16 02:23:57;;;;;;;10.90;7.67;;;;;;;;;;5047803;28;20415;-59
2022/07/16 02:26:23;;;;;;;12.97;6.63;;;;;;;;;;5047432;28;20052;-60
2022/07/16 02:28:49;;;;;;;10.90;5.63;;;;;;;;;;5047953;28;20044;-60
2022/07/16 02:31:15;;;;;;;17.37;8.50;;;;;;;;;;5047560;28;20546;-59
2022/07/16 02:33:41;;;;;;;13.40;6.20;;;;;;;;;;5047645;28;20056;-60
2022/07/16 02:36:08;;;;;;;11.20;5.07;;;;;;;;;;5047495;28;20063;-59
2022/07/16 02:38:34;;;;;;;5.93;3.20;;;;;;;;;;5047836;28;20575;-59
2022/07/16 02:41:00;;;;;;;9.97;5.10;;;;;;;;;;5047419;28;20128;-59
2022/07/16 02:43:26;;;;;;;4.97;3.17;;;;;;;;;;5051312;28;20064;-59
2022/07/16 02:45:52;;;;;;;7.03;3.43;;;;;;;;;;5051446;28;20522;-60
2022/07/16 02:48:18;;;;;;;13.67;3.50;;;;;;;;;;5051766;28;20509;-59
2022/07/16 02:50:44;;;;;;;7.03;3.40;;;;;;;;;;5051513;28;20083;-59
2022/07/16 02:53:11;;;;;;;7.23;3.50;;;;;;;;;;5051331;28;20045;-60
2022/07/16 02:55:37;;;;;;;12.17;3.90;;;;;;;;;;5051729;28;20056;-60
2022/07/16 02:58:03;;;;;;;9.60;3.43;;;;;;;;;;5051449;28;20098;-59
2022/07/16 03:00:30;;;;;;;9.87;3.97;;;;;;;;;;5051103;28;20049;-60
2022/07/16 03:02:57;;;;;;;4.40;2.60;;;;;;;;;;5050855;28;20056;-59
2022/07/16 03:05:23;;;;;;;11.57;3.83;;;;;;;;;;5051801;28;20125;-60
2022/07/16 03:07:49;;;;;;;8.20;3.50;;;;;;;;;;5051143;28;20116;-59
2022/07/16 03:10:16;;;;;;;6.17;2.63;;;;;;;;;;5050744;28;20045;-60
2022/07/16 03:12:42;;;;;;;7.87;2.67;;;;;;;;;;5051371;28;20131;-59
2022/07/16 03:15:10;;;;;;;7.00;2.87;;;;;;;;;;5050994;28;20091;-60
2022/07/16 03:17:36;;;;;;;11.27;3.67;;;;;;;;;;5050683;28;20589;-60
2022/07/16 03:20:02;;;;;;;8.20;2.67;;;;;;;;;;5051402;28;20045;-59
2022/07/16 03:22:28;;;;;;;6.20;2.37;;;;;;;;;;5050938;28;20140;-59
2022/07/16 03:24:54;;;;;;;8.47;3.30;;;;;;;;;;5050859;28;20041;-60
2022/07/16 03:27:20;;;;;;;8.47;2.87;;;;;;;;;;5050407;28;20049;-59
2022/07/16 03:29:46;;;;;;;9.33;2.93;;;;;;;;;;5050776;28;20434;-60
2022/07/16 03:32:13;;;;;;;7.13;2.50;;;;;;;;;;5050713;28;20064;-59
2022/07/16 03:34:39;;;;;;;7.90;2.60;;;;;;;;;;5050495;28;20053;-60
2022/07/16 03:37:05;;;;;;;8.43;2.90;;;;;;;;;;5050581;28;20078;-59
2022/07/16 03:39:31;;;;;;;8.73;2.87;;;;;;;;;;5050613;28;20084;-60
2022/07/16 03:41:57;;;;;;;9.73;3.50;;;;;;;;;;5049078;28;20091;-60
2022/07/16 03:44:23;;;;;;;4.43;2.77;;;;;;;;;;5050263;28;20085;-60
2022/07/16 03:46:49;;;;;;;6.67;2.90;;;;;;;;;;5050179;28;20049;-60
2022/07/16 03:49:15;;;;;;;10.43;2.47;;;;;;;;;;5049779;28;20044;-60
2022/07/16 03:51:41;;;;;;;10.40;3.60;;;;;;;;;;5050118;28;20496;-60
2022/07/16 03:54:07;;;;;;;10.40;2.87;;;;;;;;;;5050102;28;20060;-60
2022/07/16 03:56:33;;;;;;;6.23;3.03;;;;;;;;;;5050198;28;20055;-59
2022/07/16 03:58:59;;;;;;;5.90;2.83;;;;;;;;;;5049536;28;20106;-59
2022/07/16 04:01:25;;;;;;;5.13;2.57;;;;;;;;;;5050226;28;20053;-59
2022/07/16 04:03:51;;;;;;;7.10;2.67;;;;;;;;;;5050167;28;20060;-59
2022/07/16 04:06:17;;;;;;;10.43;3.57;;;;;;;;;;5049927;28;20049;-59
2022/07/16 04:08:43;;;;;;;11.13;2.83;;;;;;;;;;5049867;28;20128;-60
2022/07/16 04:11:09;;;;;;;6.87;3.60;;;;;;;;;;5047693;28;20080;-60
2022/07/16 04:13:39;;;;;;;9.63;3.60;;;;;;;;;;5049868;28;20060;-60
2022/07/16 04:16:06;;;;;;;10.40;3.30;;;;;;;;;;5049852;28;20048;-60
2022/07/16 04:18:32;;;;;;;8.93;3.30;;;;;;;;;;5049841;28;20214;-60
2022/07/16 04:20:58;;;;;;;8.67;3.40;;;;;;;;;;5049277;28;20506;-60
2022/07/16 04:23:25;;;;;;;10.50;3.80;;;;;;;;;;5049457;28;20052;-60
2022/07/16 04:25:51;;;;;;;9.30;3.17;;;;;;;;;;5049568;28;20048;-60
2022/07/16 04:28:18;;;;;;;8.17;3.50;;;;;;;;;;5049295;28;20061;-60
2022/07/16 04:30:44;;;;;;;8.80;2.83;;;;;;;;;;5049534;28;20048;-60
2022/07/16 04:33:10;;;;;;;10.07;3.10;;;;;;;;;;5048953;28;20057;-60
2022/07/16 04:35:36;;;;;;;8.43;3.37;;;;;;;;;;5048274;28;20056;-60
2022/07/16 04:38:02;;;;;;;9.07;2.90;;;;;;;;;;5049361;28;20052;-60
2022/07/16 04:40:29;;;;;;;13.17;3.97;;;;;;;;;;5048989;28;20051;-60
2022/07/16 04:42:55;;;;;;;7.13;3.60;;;;;;;;;;5048815;28;20048;-60
2022/07/16 04:45:21;;;;;;;8.40;2.90;;;;;;;;;;5049274;28;20526;-60
2022/07/16 04:47:47;;;;;;;7.23;3.40;;;;;;;;;;5049171;28;20049;-60
2022/07/16 04:50:13;;;;;;;7.03;3.00;;;;;;;;;;5049078;28;20462;-61
2022/07/16 04:52:39;;;;;;;8.07;3.57;;;;;;;;;;5048792;28;20045;-60
2022/07/16 04:55:06;;;;;;;10.23;3.40;;;;;;;;;;5049009;28;20151;-60
2022/07/16 04:57:32;;;;;;;13.80;3.53;;;;;;;;;;5048987;28;20045;-60
2022/07/16 04:59:58;;;;;;;7.83;3.37;;;;;;;;;;5048953;28;20506;-60
2022/07/16 05:05:09;;;;;;;10.07;3.00;;;;;;;;;;5048185;28;20061;-60
2022/07/16 05:07:36;;;;;;;9.10;2.50;;;;;;;;;;5047850;28;20511;-60
2022/07/16 05:10:02;;;;;;;9.53;2.93;;;;;;;;;;5048638;28;20045;-60
2022/07/16 05:12:28;;;;;;;8.63;2.80;;;;;;;;;;5048796;28;20640;-60
2022/07/16 05:14:54;;;;;;;10.63;2.80;;;;;;;;;;5048542;28;20396;-61
2022/07/16 05:17:20;;;;;;;5.47;2.30;;;;;;;;;;5048098;28;20048;-60
2022/07/16 05:19:46;;;;;;;5.43;1.90;;;;;;;;;;5048663;28;20040;-60
2022/07/16 05:22:12;;;;;;;5.70;1.93;;;;;;;;;;5048228;28;20041;-60
2022/07/16 05:24:38;;;;;;;10.77;2.70;;;;;;;;;;5048508;28;20487;-60
2022/07/16 05:27:04;;;;;;;9.27;2.43;;;;;;;;;;5048318;28;20084;-60
2022/07/16 05:29:30;;;;;;;11.27;1.93;;;;;;;;;;5048125;28;20056;-60
2022/07/16 05:31:56;;;;;;;5.37;2.27;;;;;;;;;;5048021;28;20041;-60
2022/07/16 05:34:22;;;;;;;9.67;1.77;;;;;;;;;;5048265;28;20517;-60
2022/07/16 05:36:48;;;;;;;10.17;2.30;;;;;;;;;;5048326;28;20056;-59
2022/07/16 05:39:14;;;;;;;8.40;2.70;;;;;;;;;;5047857;28;20053;-60
2022/07/16 05:41:41;;;;;;;7.33;1.70;;;;;;;;;;5047657;28;20060;-60
2022/07/16 05:44:07;;;;;;;8.07;3.70;;;;;;;;;;5048146;28;20146;-60
2022/07/16 05:46:33;;;;;;;9.77;1.90;;;;;;;;;;5046340;28;20111;-60
2022/07/16 05:48:59;;;;;;;7.63;1.63;;;;;;;;;;5048045;28;20048;-61
2022/07/16 05:51:25;;;;;;;7.33;1.60;;;;;;;;;;5048246;28;20056;-60
2022/07/16 05:53:51;;;;;;;9.33;1.87;;;;;;;;;;5047506;28;20119;-60
2022/07/16 05:56:17;;;;;;;9.93;1.63;;;;;;;;;;5047643;28;20547;-60
2022/07/16 05:58:43;;;;;;;9.20;1.83;;;;;;;;;;5047680;28;20041;-60
2022/07/16 06:01:09;;;;;;;6.33;1.60;;;;;;;;;;5047690;28;20094;-60
2022/07/16 06:03:38;;;;;;;12.00;2.53;;;;;;;;;;5047530;28;20137;-60
2022/07/16 06:06:05;;;;;;;6.27;1.73;;;;;;;;;;5047790;28;20049;-60
2022/07/16 06:08:31;;;;;;;8.53;2.03;;;;;;;;;;5047433;28;20130;-60
2022/07/16 06:10:57;;;;;;;6.20;2.17;;;;;;;;;;5047544;28;20049;-60
2022/07/16 06:13:23;;;;;;;11.43;2.03;;;;;;;;;;5047551;28;20504;-60
2022/07/16 06:15:49;;;;;;;7.27;2.47;;;;;;;;;;5047076;28;20179;-61
2022/07/16 06:18:15;;;;;;;7.00;1.80;;;;;;;;;;5046935;28;20071;-59
2022/07/16 06:20:41;;;;;;;9.50;1.80;;;;;;;;;;5047512;28;20124;-60
2022/07/16 06:23:07;;;;;;;10.80;2.10;;;;;;;;;;5047798;28;20507;-59
2022/07/16 06:25:33;;;;;;;10.30;2.23;;;;;;;;;;5047292;28;20140;-60
2022/07/16 06:27:59;;;;;;;7.50;1.73;;;;;;;;;;5047338;28;20045;-60
2022/07/16 06:30:25;;;;;;;6.13;2.10;;;;;;;;;;5047711;28;20094;-60
2022/07/16 06:32:51;;;;;;;7.10;1.93;;;;;;;;;;5047318;28;20040;-59
2022/07/16 06:35:18;;;;;;;8.23;2.07;;;;;;;;;;5047051;28;20143;-60
2022/07/16 06:37:44;;;;;;;5.20;1.60;;;;;;;;;;5047039;28;20202;-60
2022/07/16 06:40:10;;;;;;;5.77;1.53;;;;;;;;;;5047400;28;20045;-60
2022/07/16 06:42:37;;;;;;;8.07;1.50;;;;;;;;;;5046906;28;20053;-60
2022/07/16 06:45:03;;;;;;;8.73;2.13;;;;;;;;;;5047409;28;20482;-59
2022/07/16 06:47:29;;;;;;;5.97;1.73;;;;;;;;;;5047466;28;20489;-60
2022/07/16 06:49:55;;;;;;;7.60;1.53;;;;;;;;;;5046862;28;20068;-60
2022/07/16 06:52:21;;;;;;;7.33;1.30;;;;;;;;;;5047399;28;20037;-60
2022/07/16 06:54:47;;;;;;;7.50;2.07;;;;;;;;;;5047325;28;20079;-60
2022/07/16 06:57:13;;;;;;;6.50;1.83;;;;;;;;;;5046950;28;20052;-60
2022/07/16 06:59:39;;;;;;;6.53;1.27;;;;;;;;;;5046965;28;20051;-60
2022/07/16 07:02:05;;;;;;;6.97;1.37;;;;;;;;;;5047464;28;20041;-60
2022/07/16 07:04:31;;;;;;;10.67;1.70;;;;;;;;;;5047132;28;20414;-60
2022/07/16 07:06:57;;;;;;;5.77;1.93;;;;;;;;;;5046915;28;20045;-60
2022/07/16 07:09:23;;;;;;;4.37;1.27;;;;;;;;;;5047175;28;20045;-59
2022/07/16 07:11:49;;;;;;;5.67;1.30;;;;;;;;;;5046585;28;20041;-60
2022/07/16 07:14:16;;;;;;;6.17;1.10;;;;;;;;;;5046884;28;20503;-60
2022/07/16 07:16:42;;;;;;;6.43;1.40;;;;;;;;;;5047080;28;20048;-60
2022/07/16 07:19:08;;;;;;;6.23;1.40;;;;;;;;;;5046627;28;20824;-60
2022/07/16 07:21:34;;;;;;;9.03;1.50;;;;;;;;;;5047139;28;20047;-60
2022/07/16 07:24:00;;;;;;;6.47;2.40;;;;;;;;;;5046999;28;20139;-60
2022/07/16 07:26:27;;;;;;;10.93;1.87;;;;;;;;;;5046688;28;20044;-60
2022/07/16 07:28:53;;;;;;;5.20;1.37;;;;;;;;;;5049462;28;20045;-60
2022/07/16 07:31:19;;;;;;;6.00;1.43;;;;;;;;;;5050612;28;20131;-60
2022/07/16 07:33:45;;;;;;;8.27;1.27;;;;;;;;;;5050534;28;20131;-59
2022/07/16 07:36:11;;;;;;;5.00;1.10;;;;;;;;;;5050244;28;20469;-60
2022/07/16 07:38:37;;;;;;;10.00;1.10;;;;;;;;;;5050540;28;20047;-60
2022/07/16 07:41:03;;;;;;;8.40;1.10;;;;;;;;;;5049912;28;20041;-60
2022/07/16 07:43:29;;;;;;;5.10;1.20;;;;;;;;;;5050286;28;20135;-59
2022/07/16 07:45:55;;;;;;;8.83;1.57;;;;;;;;;;5050292;28;20153;-60
2022/07/16 07:48:22;;;;;;;5.33;1.10;;;;;;;;;;5050180;28;20507;-60
2022/07/16 07:50:48;;;;;;;5.10;1.20;;;;;;;;;;5050267;28;20842;-59
2022/07/16 07:53:14;;;;;;;6.47;1.40;;;;;;;;;;5049900;28;20144;-59
2022/07/16 07:55:41;;;;;;;3.70;0.67;;;;;;;;;;5050291;28;20063;-60
2022/07/16 07:58:07;;;;;;;8.50;1.07;;;;;;;;;;5050142;28;20056;-59
2022/07/16 08:00:33;;;;;;;6.20;1.57;;;;;;;;;;5050064;28;20517;-60
2022/07/16 08:02:59;;;;;;;7.13;1.13;;;;;;;;;;5049981;28;20045;-60
2022/07/16 08:05:25;;;;;;;6.27;1.00;;;;;;;;;;5049714;28;20041;-60
2022/07/16 08:07:51;;;;;;;4.57;1.00;;;;;;;;;;5049600;28;20052;-60
2022/07/16 08:10:18;;;;;;;6.60;1.30;;;;;;;;;;5049414;28;20063;-59
2022/07/16 08:12:44;;;;;;;4.50;0.80;;;;;;;;;;5049554;28;20095;-59
2022/07/16 08:15:10;;;;;;;9.60;1.20;;;;;;;;;;5049591;28;20072;-59
2022/07/16 08:17:37;;;;;;;12.03;1.77;;;;;;;;;;5049682;28;20601;-59
2022/07/16 08:20:04;;;;;;;4.00;1.10;;;;;;;;;;5049716;28;20053;-59
2022/07/16 08:22:30;;;;;;;7.23;1.23;;;;;;;;;;5049070;28;20045;-60
2022/07/16 08:27:41;;;;;;;3.53;0.90;;;;;;;;;;5049595;28;20049;-59
2022/07/16 08:30:07;;;;;;;5.17;1.20;;;;;;;;;;5049401;28;20048;-60
2022/07/16 08:32:33;;;;;;;3.70;0.70;;;;;;;;;;5049402;28;20052;-59
2022/07/16 08:34:59;;;;;;;5.07;1.20;;;;;;;;;;5049025;28;20495;-59
2022/07/16 08:37:33;;;;;;;5.43;0.80;;;;;;;;;;5049431;28;20525;-59
2022/07/16 08:40:00;;;;;;;3.43;1.07;;;;;;;;;;5048380;28;20094;-59
2022/07/16 08:42:26;;;;;;;4.77;1.07;;;;;;;;;;5048904;28;20088;-59
2022/07/16 08:44:52;;;;;;;4.63;1.03;;;;;;;;;;5049007;28;20049;-60
2022/07/16 08:47:18;;;;;;;6.63;1.10;;;;;;;;;;5048939;28;20133;-59
2022/07/16 08:49:45;;;;;;;6.27;0.80;;;;;;;;;;5049625;28;20087;-59
2022/07/16 08:52:12;;;;;;;4.27;1.00;;;;;;;;;;5048333;28;20049;-59
2022/07/16 08:54:39;;;;;;;4.57;0.70;;;;;;;;;;5049352;28;20041;-59
2022/07/16 08:57:05;;;;;;;3.23;0.83;;;;;;;;;;5049100;28;20045;-59
2022/07/16 08:59:31;;;;;;;2.97;0.70;;;;;;;;;;5048305;28;20495;-59
2022/07/16 09:01:57;;;;;;;3.70;0.77;;;;;;;;;;5048507;28;20053;-59
2022/07/16 09:04:23;;;;;;;2.43;0.57;;;;;;;;;;5048936;28;20044;-59
2022/07/16 09:06:49;;;;;;;5.43;0.83;;;;;;;;;;5046651;28;20063;-59
2022/07/16 09:09:15;;;;;;;3.70;0.70;;;;;;;;;;5048449;28;20499;-59
2022/07/16 09:11:41;;;;;;;3.03;0.80;;;;;;;;;;5048885;28;20037;-59
2022/07/16 09:14:09;;;;;;;2.83;0.70;;;;;;;;;;5048734;28;20175;-60
2022/07/16 09:16:38;;;;;;;4.67;1.10;;;;;;;;;;5048632;28;20064;-59
2022/07/16 09:19:10;;;;;;;4.40;0.67;;;;;;;;;;5048783;28;20048;-59
2022/07/16 09:21:36;;;;;;;4.00;0.60;;;;;;;;;;5048110;28;20045;-59
2022/07/16 09:24:03;;;;;;;4.68;0.88;;;;;;;;;;5048421;28;20045;-59
2022/07/16 09:26:29;;;;;;;3.97;0.70;;;;;;;;;;5048234;28;20064;-59
2022/07/16 09:28:56;;;;;;;2.78;0.88;;;;;;;;;;5047968;28;20033;-59
2022/07/16 09:31:41;;;;;;;2.90;0.60;;;;;;;;;;5048412;28;20049;-60
2022/07/16 09:34:08;;;;;;;2.70;0.80;;;;;;;;;;5048340;28;20164;-60
2022/07/16 09:36:35;;;;;;;3.80;0.85;;;;;;;;;;5048236;28;20052;-60
2022/07/16 09:39:01;;;;;;;3.38;0.88;;;;;;;;;;5047862;28;20071;-59
2022/07/16 09:41:27;;;;;;;2.80;0.85;;;;;;;;;;5048424;28;20120;-59
2022/07/16 09:43:53;;;;;;;2.65;0.90;;;;;;;;;;5047962;28;20056;-60
2022/07/16 09:46:21;;;;;;;4.93;0.85;;;;;;;;;;5047882;28;20149;-59
2022/07/16 09:48:47;;;;;;;3.60;0.77;;;;;;;;;;5048173;28;20055;-60
2022/07/16 09:51:13;;;;;;;5.25;0.82;;;;;;;;;;5047300;28;20577;-60
2022/07/16 09:53:40;;;;;;;7.53;1.05;;;;;;;;;;5048265;28;20044;-60
2022/07/16 09:56:12;;;;;;;4.38;0.80;;;;;;;;;;5048075;28;20048;-59
2022/07/16 09:58:38;;;;;;;2.72;0.80;;;;;;;;;;5048044;28;20037;-59
2022/07/16 10:01:05;;;;;;;4.13;0.88;;;;;;;;;;5047864;28;20051;-60
2022/07/16 10:03:31;;;;;;;3.03;1.27;;;;;;;;;;5047397;28;20129;-59
2022/07/16 10:05:57;;;;;;;6.57;0.88;;;;;;;;;;5046570;28;20048;-59
2022/07/16 10:08:24;;;;;;;3.35;1.45;;;;;;;;;;5047714;28;20052;-60
2022/07/16 10:10:51;;;;;;;4.25;0.93;;;;;;;;;;5047622;28;20565;-59
2022/07/16 10:13:17;;;;;;;3.42;0.90;;;;;;;;;;5047261;28;20072;-60
2022/07/16 10:15:43;;;;;;;5.05;1.10;;;;;;;;;;5047758;28;20045;-60
2022/07/16 10:18:28;;;;;;;5.55;1.00;;;;;;;;;;5047469;28;20135;-59
2022/07/16 10:21:04;;;;;;;3.30;0.90;;;;;;;;;;5047682;28;20044;-59
2022/07/16 10:23:31;;;;;;;3.35;0.95;;;;;;;;;;5046328;28;20053;-59
2022/07/16 10:25:58;;;;;;;5.25;1.00;;;;;;;;;;5047172;28;20045;-59
2022/07/16 10:28:40;;;;;;;5.05;1.10;;;;;;;;;;5047302;28;20057;-59
2022/07/16 10:31:24;;;;;;;4.20;0.90;;;;;;;;;;5047576;28;20148;-60
2022/07/16 10:34:10;;;;;;;3.67;1.08;;;;;;;;;;5047515;28;20048;-60
2022/07/16 10:36:45;;;;;;;3.03;0.80;;;;;;;;;;5047394;28;20037;-60
2022/07/16 10:39:14;;;;;;;6.30;0.80;;;;;;;;;;5047220;28;20045;-60
2022/07/16 10:41:50;;;;;;;4.72;1.20;;;;;;;;;;5047577;28;20481;-60
2022/07/16 10:44:17;;;;;;;4.68;0.88;;;;;;;;;;5045537;28;20053;-59
2022/07/16 10:46:53;;;;;;;7.13;1.48;;;;;;;;;;5047261;28;20148;-60
2022/07/16 10:49:19;;;;;;;3.80;1.10;;;;;;;;;;5047316;28;20056;-60
2022/07/16 10:51:58;;;;;;;2.78;0.90;;;;;;;;;;5047147;28;20099;-61
2022/07/16 10:54:24;;;;;;;4.85;0.90;;;;;;;;;;5046835;28;20135;-60
2022/07/16 10:56:51;;;;;;;6.43;1.50;;;;;;;;;;5047143;28;20103;-60
2022/07/16 10:59:19;;;;;;;5.88;1.02;;;;;;;;;;5046822;28;20496;-60
2022/07/16 11:01:46;;;;;;;3.70;0.88;;;;;;;;;;5047429;28;20099;-60
2022/07/16 11:04:13;;;;;;;3.33;1.10;;;;;;;;;;5050241;28;20041;-59
2022/07/16 11:06:40;;;;;;;5.50;1.55;;;;;;;;;;5050885;28;20416;-60
2022/07/16 11:09:07;;;;;;;3.20;0.80;;;;;;;;;;5050851;28;21128;-59
2022/07/16 11:11:33;;;;;;;3.78;1.20;;;;;;;;;;5050986;28;20525;-60
2022/07/16 11:14:03;;;;;;;3.15;1.13;;;;;;;;;;5051277;28;20095;-60
2022/07/16 11:16:29;;;;;;;3.95;1.10;;;;;;;;;;5050688;28;20503;-60
2022/07/16 11:18:55;;;;;;;5.85;1.10;;;;;;;;;;5050357;28;20048;-59
2022/07/16 11:21:21;;;;;;;3.65;0.95;;;;;;;;;;5051008;28;20076;-60
2022/07/16 11:23:52;;;;;;;3.17;0.77;;;;;;;;;;5050954;28;20049;-59
2022/07/16 11:26:21;;;;;;;2.72;0.90;;;;;;;;;;5050823;28;20041;-59
2022/07/16 11:28:55;;;;;;;3.40;0.93;;;;;;;;;;5050830;28;20154;-59
2022/07/16 11:31:28;;;;;;;4.47;1.10;;;;;;;;;;5050577;28;20132;-60
2022/07/16 11:33:56;;;;;;;3.30;1.00;;;;;;;;;;5050167;28;20502;-60
2022/07/16 11:36:26;;;;;;;4.40;1.00;;;;;;;;;;5050462;28;20087;-60
2022/07/16 11:38:56;;;;;;;3.60;1.05;;;;;;;;;;5050460;28;20125;-60
2022/07/16 11:41:23;;;;;;;4.25;0.95;;;;;;;;;;5050390;28;20095;-60
2022/07/16 11:43:49;;;;;;;4.30;0.80;;;;;;;;;;5050173;28;20067;-59
2022/07/16 11:46:25;;;;;;;3.25;0.93;;;;;;;;;;5050532;28;20060;-59
2022/07/16 11:48:51;;;;;;;3.53;1.23;;;;;;;;;;5050348;28;20053;-59
2022/07/16 11:51:18;;;;;;;4.50;1.00;;;;;;;;;;5050874;28;20048;-59
2022/07/16 11:53:54;;;;;;;3.55;0.85;;;;;;;;;;5050632;28;20053;-60
2022/07/16 11:56:33;;;;;;;4.65;1.13;;;;;;;;;;5058628;28;20052;-60
2022/07/16 11:58:59;;;;;;;5.93;1.42;;;;;;;;;;5068818;28;20048;-59
2022/07/16 12:01:25;;;;;;;5.43;1.10;;;;;;;;;;5050775;28;20049;-60
2022/07/16 12:03:55;;;;;;;6.53;1.33;;;;;;;;;;5050482;28;20570;-59
2022/07/16 12:06:21;;;;;;;3.88;0.90;;;;;;;;;;5050837;28;20564;-59
2022/07/16 12:08:54;;;;;;;3.40;0.80;;;;;;;;;;5056962;28;20063;-59
2022/07/16 12:11:20;;;;;;;7.50;1.17;;;;;;;;;;5067290;28;20045;-59
2022/07/16 12:13:53;;;;;;;2.90;1.02;;;;;;;;;;5050304;28;20059;-59
2022/07/16 12:16:20;;;;;;;3.53;1.27;;;;;;;;;;5050491;28;20052;-59
2022/07/16 12:18:58;;;;;;;4.75;1.10;;;;;;;;;;5064610;28;20036;-59
2022/07/16 12:21:29;;;;;;;5.03;1.17;;;;;;;;;;5070471;28;20406;-60
2022/07/16 12:23:55;;;;;;;4.53;1.13;;;;;;;;;;5069992;28;20044;-59
2022/07/16 12:26:29;;;;;;;5.03;1.10;;;;;;;;;;5067614;28;20457;-59
2022/07/16 12:28:55;;;;;;;5.78;1.40;;;;;;;;;;5053708;28;20048;-59
2022/07/16 12:31:21;;;;;;;4.93;1.20;;;;;;;;;;5061344;28;20041;-60
2022/07/16 12:33:51;;;;;;;5.15;1.20;;;;;;;;;;5057795;28;20063;-60
2022/07/16 12:36:20;;;;;;;5.38;1.60;;;;;;;;;;5049673;28;20049;-59
2022/07/16 12:38:51;;;;;;;6.80;1.70;;;;;;;;;;5053948;28;20036;-59
2022/07/16 12:41:19;;;;;;;5.30;1.35;;;;;;;;;;5062331;28;20089;-59
2022/07/16 12:43:48;;;;;;;5.15;0.98;;;;;;;;;;5062435;28;20102;-59
2022/07/16 12:46:14;;;;;;;3.42;1.00;;;;;;;;;;5049870;28;20052;-59
2022/07/16 12:48:44;;;;;;;4.80;1.35;;;;;;;;;;5049813;28;20143;-60
2022/07/16 12:51:12;;;;;;;4.75;1.25;;;;;;;;;;5059245;28;20064;-60
2022/07/16 12:53:38;;;;;;;4.50;1.00;;;;;;;;;;5070187;28;20055;-59
2022/07/16 12:58:49;;;;;;;3.35;1.00;;;;;;;;;;5060120;28;20045;-60
2022/07/16 13:01:16;;;;;;;3.95;0.80;;;;;;;;;;5059146;28;20106;-59
2022/07/16 13:03:42;;;;;;;4.95;1.27;;;;;;;;;;5049785;28;21018;-59
2022/07/16 13:06:09;;;;;;;5.30;1.40;;;;;;;;;;5049396;28;20496;-59
2022/07/16 13:08:36;;;;;;;6.45;1.40;;;;;;;;;;5049242;28;20094;-60
2022/07/16 13:11:02;;;;;;;7.07;1.30;;;;;;;;;;5049745;28;20036;-60
2022/07/16 13:13:29;;;;;;;3.70;1.00;;;;;;;;;;5049737;28;20739;-60
2022/07/16 13:15:55;;;;;;;4.63;1.13;;;;;;;;;;5049516;28;20526;-59
2022/07/16 13:18:21;;;;;;;4.60;1.27;;;;;;;;;;5049590;28;20041;-59
2022/07/16 13:20:47;;;;;;;3.30;1.23;;;;;;;;;;5049843;28;20048;-59
2022/07/16 13:23:13;;;;;;;3.35;1.10;;;;;;;;;;5049183;28;20044;-59
2022/07/16 13:25:39;;;;;;;3.92;1.08;;;;;;;;;;5048258;28;20769;-59
2022/07/16 13:28:05;;;;;;;4.07;1.17;;;;;;;;;;5047074;28;20048;-60
2022/07/16 13:30:31;;;;;;;3.30;0.93;;;;;;;;;;5048727;28;20041;-59
2022/07/16 13:32:57;;;;;;;5.22;1.65;;;;;;;;;;5048722;28;20419;-59
2022/07/16 13:35:23;;;;;;;4.63;1.60;;;;;;;;;;5049015;28;20499;-60
2022/07/16 13:37:49;;;;;;;2.85;1.05;;;;;;;;;;5048898;28;20041;-59
2022/07/16 13:40:15;;;;;;;2.05;0.88;;;;;;;;;;5048784;28;20045;-59
2022/07/16 13:42:41;;;;;;;3.97;1.25;;;;;;;;;;5048851;28;20064;-59
2022/07/16 13:45:08;;;;;;;3.50;1.33;;;;;;;;;;5047668;28;20359;-60
2022/07/16 13:47:36;;;;;;;2.63;0.80;;;;;;;;;;5048308;28;20557;-60
2022/07/16 13:50:02;;;;;;;3.30;1.15;;;;;;;;;;5048740;28;20049;-59
2022/07/16 13:52:28;;;;;;;5.20;1.13;;;;;;;;;;5047882;28;20115;-59
2022/07/16 13:54:54;;;;;;;3.80;1.02;;;;;;;;;;5048564;28;20049;-60
2022/07/16 14:00:05;;;;;;;2.92;1.02;;;;;;;;;;5048241;28;20045;-60
2022/07/16 14:02:31;;;;;;;4.25;1.25;;;;;;;;;;5048481;28;20063;-59
2022/07/16 14:04:57;;;;;;;3.70;1.20;;;;;;;;;;5048449;28;20051;-60
2022/07/16 14:07:23;;;;;;;7.13;1.77;;;;;;;;;;5048313;28;20076;-60
2022/07/16 14:09:49;;;;;;;4.53;1.05;;;;;;;;;;5048488;28;20053;-59
2022/07/16 14:12:15;;;;;;;4.32;1.38;;;;;;;;;;5047824;28;20041;-60
2022/07/16 14:14:41;;;;;;;5.72;1.58;;;;;;;;;;5048537;28;20134;-60
2022/07/16 14:17:07;;;;;;;5.32;1.30;;;;;;;;;;5048309;28;20049;-59
2022/07/16 14:19:33;;;;;;;4.38;1.33;;;;;;;;;;5048449;28;20045;-60
2022/07/16 14:21:59;;;;;;;3.53;1.20;;;;;;;;;;5048420;28;20053;-60
2022/07/16 14:24:25;;;;;;;4.13;1.20;;;;;;;;;;5048229;28;20492;-59
2022/07/16 14:26:52;;;;;;;3.47;1.23;;;;;;;;;;5048133;28;20060;-59
2022/07/16 14:29:17;;;;;;;5.43;1.38;;;;;;;;;;5048125;28;20041;-59
2022/07/16 14:31:43;;;;;;;5.80;1.52;;;;;;;;;;5047801;28;20461;-60
2022/07/16 14:34:09;;;;;;;7.18;1.48;;;;;;;;;;5048093;28;20052;-60
2022/07/16 14:36:35;;;;;;;5.60;1.23;;;;;;;;;;5047955;28;20041;-60
2022/07/16 14:39:01;;;;;;;7.05;1.58;;;;;;;;;;5051281;28;20418;-59
2022/07/16 14:41:27;;;;;;;4.60;1.65;;;;;;;;;;5052159;28;20071;-59
2022/07/16 14:43:54;;;;;;;4.00;1.08;;;;;;;;;;5052102;28;20071;-60
2022/07/16 14:46:20;;;;;;;5.38;1.45;;;;;;;;;;5051832;28;20053;-60
2022/07/16 14:48:46;;;;;;;5.82;1.20;;;;;;;;;;5052067;28;20045;-60
2022/07/16 14:51:13;;;;;;;4.07;1.25;;;;;;;;;;5052061;28;20562;-60